罗盘
风向 的 风向 170° Ciampino–G. B. Pastine International Airport 15/33
风: 12 kt, 4 beaufort

11 kt

4 kt
改变
0 1.000 2.000 3.000 4.000 5.000
FEW 4.000 ft
METAR LIRA 301620Z 17012KT 9999 FEW040 23/15 Q1010

METAR Ciampino–G. B. Pastine International Airport - LIRA/CIA

Ciampino–G. B. Pastine International Airport是Rome,意大利中的中型机场。 该机场有一条跑道: 15/33. 该领域的国际民航组织标志是LIRA 它的国际航空运输协会代码是CIA.

这份报告是针对2022年9月30日 18:20, 当地时间在Ciampino–G. B. Pastine International Airport进行的。

机场观察

风向为170°,速度为12 kt。

可见度为10 km 或者更多。

有几云在4.000 ft的高度。 没有观察到天花板。

温度和风寒是23 °C。 露点为15 °C,相对湿度为61%。 海平面上的气压为1010 hPa (QNH)。

白天

今天,太阳从07:05升起,在18:53降落。 这适用于Ciampino–G. B. Pastine International Airport,世界夏令时可能有所不同。 当地时间与世界标准时间之间的时差为+2 小时。 夏令时目前正在进行中。

公司介绍

我们没有关于这个机场的公司信息。

体会

到Vliegles.nl去找飞行课程,跳伞和其他飞行体验。 浏览页面,了解Ciampino–G. B. Pastine International Airport附近所有可用的活动。 你也可以使用搜索功能来寻找你所在地附近的特定飞行课程、跳伞或其他飞行体验。

跑道

Id 标题 侧风 逆风 侧风 %
15/33 152°-332° 4 kt 11 kt 31 %

逆风成分最大的方向会被突出显示,并用于横风计算。 这并不一定意味着这个方向在使用。

乌云

4.000 ft FEW 几云

温度 & 天气

温度 23 °C
露点 15 °C
相对湿度 61%
Kp-index 1 (0-9)

白天

日出
07:05
中午
12:59
日落
18:53 (13m)

小工具

你想在你的网站上有一个关于Ciampino–G. B. Pastine International Airport的当前航空天气(METAR)的小部件吗?

</> 显示HTML代码

我们和第三方通过cookies跟踪您在我们网站上的上网行为。如果您继续,我们认为您同意我们的cookie政策。 了解更多